Time;durP1;ratioP1;P1;durP2;ratioP2;P2;SDS_P1;SDS_P2;PMS_P1;PMS_P2;Temp;Humidity;BMP_temperature;BMP_pressure;BME280_temperature;BME280_humidity;BME280_pressure;Samples;Min_cycle;Max_cycle;Signal;HPM_P1;HPM_P2
2022/08/18 00:00:12;;;;;;;10.88;10.57;;;22.40;99.90;;;;;;5028833;28;20259;-88
2022/08/18 00:02:46;;;;;;;10.70;10.40;;;22.40;99.90;;;;;;5021025;28;20266;-88
2022/08/18 00:05:16;;;;;;;10.80;10.50;;;22.30;99.90;;;;;;5019416;28;20294;-88
2022/08/18 00:07:49;;;;;;;10.93;10.63;;;22.20;99.90;;;;;;5020398;28;20228;-88
2022/08/18 00:10:34;;;;;;;10.93;10.63;;;22.10;99.90;;;;;;5019885;28;20240;-87
2022/08/18 00:13:03;;;;;;;10.80;10.50;;;22.20;99.90;;;;;;5020096;28;20220;-88
2022/08/18 00:15:33;;;;;;;10.95;10.65;;;22.40;99.90;;;;;;5019314;28;20292;-88
2022/08/18 00:18:12;;;;;;;10.80;10.50;;;22.70;99.90;;;;;;5019582;28;20291;-88
2022/08/18 00:20:41;;;;;;;10.70;10.40;;;22.80;99.90;;;;;;5019333;28;20231;-88
2022/08/18 00:23:12;;;;;;;10.82;10.52;;;23.00;99.90;;;;;;5019476;28;20284;-88
2022/08/18 00:25:44;;;;;;;10.70;10.40;;;23.00;99.90;;;;;;5019254;28;20228;-88
2022/08/18 00:28:19;;;;;;;10.38;10.07;;;23.10;99.90;;;;;;5019143;28;20247;-88
2022/08/18 00:30:48;;;;;;;10.63;10.32;;;23.20;99.90;;;;;;5019535;28;20264;-89
2022/08/18 00:33:26;;;;;;;10.68;10.38;;;23.20;99.90;;;;;;5019293;28;20295;-88
2022/08/18 00:35:55;;;;;;;10.52;10.23;;;23.20;99.90;;;;;;5018037;28;20251;-89
2022/08/18 00:38:24;;;;;;;10.68;10.38;;;23.20;99.90;;;;;;5020534;28;20363;-89
2022/08/18 00:40:54;;;;;;;10.68;10.38;;;23.20;99.90;;;;;;5039048;28;20220;-89
2022/08/18 00:43:33;;;;;;;10.65;10.35;;;23.20;99.90;;;;;;5039785;28;20211;-89
2022/08/18 00:46:02;;;;;;;10.60;10.30;;;23.10;99.90;;;;;;5036883;28;20238;-89
2022/08/18 00:48:34;;;;;;;10.40;10.10;;;23.10;99.90;;;;;;5038801;28;20298;-90
2022/08/18 00:51:10;;;;;;;10.48;10.18;;;23.00;99.90;;;;;;5039941;28;20231;-89
2022/08/18 00:56:37;;;;;;;10.20;9.90;;;22.80;99.90;;;;;;5037299;28;20227;-88
2022/08/18 00:59:13;;;;;;;10.40;10.10;;;22.70;99.90;;;;;;5033266;28;20236;-88
2022/08/18 01:01:43;;;;;;;10.60;10.30;;;22.60;99.90;;;;;;5020913;28;20232;-90
2022/08/18 01:04:21;;;;;;;10.45;10.15;;;22.40;99.90;;;;;;5021131;28;20216;-88
2022/08/18 01:06:59;;;;;;;10.13;9.82;;;22.10;99.90;;;;;;5020219;28;20231;-88
2022/08/18 01:09:28;;;;;;;10.27;9.98;;;21.80;99.90;;;;;;5020024;28;20238;-88
2022/08/18 01:11:57;;;;;;;10.85;10.55;;;21.60;99.90;;;;;;5019757;28;20319;-88
2022/08/18 01:14:27;;;;;;;10.60;10.30;;;21.40;99.90;;;;;;5018019;28;20323;-88
2022/08/18 01:22:57;;;;;;;10.60;10.30;;;20.90;99.90;;;;;;5018338;28;20212;-88
2022/08/18 01:28:16;;;;;;;10.88;10.57;;;20.80;99.90;;;;;;5018461;28;20299;-88
2022/08/18 01:30:57;;;;;;;10.45;10.15;;;20.70;99.90;;;;;;5018175;28;20235;-88
2022/08/18 01:33:31;;;;;;;10.60;10.30;;;20.70;99.90;;;;;;5018523;28;20238;-88
2022/08/18 01:36:02;;;;;;;10.80;10.50;;;20.60;99.90;;;;;;5017154;28;20317;-87
2022/08/18 01:38:31;;;;;;;10.30;10.00;;;20.60;99.90;;;;;;5018067;28;20230;-88
2022/08/18 01:40:59;;;;;;;10.43;10.13;;;20.60;99.90;;;;;;5018308;28;20232;-88
2022/08/18 01:43:27;;;;;;;10.40;10.10;;;20.50;99.90;;;;;;5019917;28;20240;-88
2022/08/18 01:45:59;;;;;;;10.30;10.00;;;20.50;99.90;;;;;;5020257;28;20316;-89
2022/08/18 01:48:31;;;;;;;10.30;10.00;;;20.50;99.90;;;;;;5020533;28;20240;-89
2022/08/18 01:50:59;;;;;;;10.52;10.23;;;20.40;99.90;;;;;;5018991;28;20228;-88
2022/08/18 01:53:35;;;;;;;10.60;10.30;;;20.30;99.90;;;;;;5017381;28;20233;-89
2022/08/18 01:56:04;;;;;;;10.32;10.02;;;20.30;99.90;;;;;;5016890;28;20231;-88
2022/08/18 01:58:35;;;;;;;10.30;10.00;;;20.20;99.90;;;;;;5018107;28;20232;-88
2022/08/18 02:01:05;;;;;;;10.40;10.10;;;20.10;99.90;;;;;;5018178;28;20294;-88
2022/08/18 02:03:43;;;;;;;10.57;10.27;;;19.90;99.90;;;;;;5017807;28;20244;-88
2022/08/18 02:06:13;;;;;;;10.80;10.50;;;19.70;99.90;;;;;;5017007;28;20240;-89
2022/08/18 02:08:53;;;;;;;10.45;10.15;;;19.50;99.90;;;;;;5017467;28;20298;-88
2022/08/18 02:11:21;;;;;;;10.30;10.00;;;19.30;99.90;;;;;;5017667;28;20224;-88
2022/08/18 02:13:49;;;;;;;10.10;9.80;;;19.20;99.90;;;;;;5017391;28;20262;-88
2022/08/18 02:16:18;;;;;;;9.93;9.63;;;19.00;99.90;;;;;;5016690;28;20263;-88
2022/08/18 02:18:48;;;;;;;10.10;9.80;;;19.00;99.90;;;;;;5017202;28;20228;-88
2022/08/18 02:21:20;;;;;;;10.15;9.85;;;19.00;99.90;;;;;;5017284;28;20228;-88
2022/08/18 02:23:50;;;;;;;10.02;9.73;;;18.90;99.90;;;;;;5016969;28;20232;-88
2022/08/18 02:26:19;;;;;;;9.90;9.60;;;18.80;99.90;;;;;;5016387;28;20236;-89
2022/08/18 02:28:47;;;;;;;10.10;9.80;;;18.80;99.90;;;;;;5020171;28;20232;-88
2022/08/18 02:31:18;;;;;;;9.90;9.60;;;18.80;99.90;;;;;;5021173;28;20299;-88
2022/08/18 02:33:48;;;;;;;10.00;9.70;;;18.70;99.90;;;;;;5020968;28;20232;-89
2022/08/18 02:36:16;;;;;;;9.77;9.48;;;18.60;99.90;;;;;;5020062;28;20240;-89
2022/08/18 02:38:44;;;;;;;10.40;10.10;;;18.60;99.90;;;;;;5020248;28;21002;-88
2022/08/18 02:41:15;;;;;;;10.20;9.90;;;18.70;99.90;;;;;;5020507;28;20228;-89
2022/08/18 02:43:43;;;;;;;10.45;10.15;;;18.70;99.90;;;;;;5023330;28;20319;-88
2022/08/18 02:46:12;;;;;;;10.30;10.00;;;18.70;99.90;;;;;;5020780;28;20239;-88
2022/08/18 02:48:41;;;;;;;10.60;10.30;;;18.80;99.90;;;;;;5020246;28;20236;-89
2022/08/18 02:51:12;;;;;;;10.43;10.13;;;18.80;99.90;;;;;;5019927;28;20310;-89
2022/08/18 02:53:50;;;;;;;10.30;10.00;;;18.90;99.90;;;;;;5020572;28;20239;-89
2022/08/18 02:56:27;;;;;;;10.40;10.10;;;18.90;99.90;;;;;;5019389;28;20236;-88
2022/08/18 02:58:58;;;;;;;10.27;9.98;;;18.90;99.90;;;;;;5019993;28;20228;-88
2022/08/18 03:04:15;;;;;;;10.40;10.10;;;18.90;99.90;;;;;;5020169;28;20232;-89
2022/08/18 03:06:44;;;;;;;10.13;9.82;;;18.90;99.90;;;;;;5019571;28;20236;-88
2022/08/18 03:09:14;;;;;;;10.27;9.98;;;19.00;99.90;;;;;;5020015;28;20240;-89
2022/08/18 03:14:28;;;;;;;10.25;9.95;;;19.00;99.90;;;;;;5019263;28;20260;-88
2022/08/18 03:16:58;;;;;;;10.20;9.90;;;19.00;99.90;;;;;;5019395;28;20236;-88
2022/08/18 03:19:28;;;;;;;10.00;9.70;;;19.00;99.90;;;;;;5019918;28;20238;-89
2022/08/18 03:21:57;;;;;;;9.80;9.50;;;19.00;99.90;;;;;;5019951;28;20270;-89
2022/08/18 03:24:27;;;;;;;10.05;9.75;;;19.10;99.90;;;;;;5019125;28;20240;-89
2022/08/18 03:26:58;;;;;;;9.82;9.52;;;19.10;99.90;;;;;;5019607;28;20220;-88
2022/08/18 03:29:26;;;;;;;9.93;9.63;;;19.10;99.90;;;;;;5019989;28;20251;-89
2022/08/18 03:31:55;;;;;;;9.90;9.60;;;19.10;99.90;;;;;;5019439;28;20292;-89
2022/08/18 03:34:25;;;;;;;10.00;9.70;;;19.10;99.90;;;;;;5018953;28;20243;-89
2022/08/18 03:36:53;;;;;;;9.75;9.45;;;19.20;99.90;;;;;;5018504;28;20327;-88
2022/08/18 03:39:23;;;;;;;9.95;9.65;;;19.20;99.90;;;;;;5019559;28;20300;-88
2022/08/18 03:41:54;;;;;;;9.70;9.40;;;19.20;99.90;;;;;;5019450;28;20232;-88
2022/08/18 03:44:25;;;;;;;9.60;9.30;;;19.20;99.90;;;;;;5020058;28;20244;-88
2022/08/18 03:46:53;;;;;;;9.90;9.60;;;19.20;99.90;;;;;;5022373;28;20282;-88
2022/08/18 03:49:21;;;;;;;9.43;9.13;;;19.30;99.90;;;;;;5018112;28;20338;-88
2022/08/18 03:51:50;;;;;;;9.40;9.10;;;19.30;99.90;;;;;;5018075;28;20228;-88
2022/08/18 03:54:19;;;;;;;9.50;9.20;;;19.30;99.90;;;;;;5017693;28;20295;-88
2022/08/18 03:56:49;;;;;;;9.43;9.13;;;19.30;99.90;;;;;;5017583;28;20327;-88
2022/08/18 03:59:20;;;;;;;9.52;9.23;;;19.30;99.90;;;;;;5018363;28;20235;-88
2022/08/18 04:01:56;;;;;;;9.63;9.32;;;19.30;99.90;;;;;;5018036;28;20246;-88
2022/08/18 04:04:27;;;;;;;9.77;9.48;;;19.40;99.90;;;;;;5017449;28;20216;-88
2022/08/18 04:06:59;;;;;;;9.70;9.40;;;19.40;99.90;;;;;;5017932;28;20275;-88
2022/08/18 04:09:29;;;;;;;10.00;9.70;;;19.30;99.90;;;;;;5018101;28;20248;-89
2022/08/18 04:12:10;;;;;;;10.07;9.77;;;19.30;99.90;;;;;;5029333;28;20240;-88
2022/08/18 04:20:09;;;;;;;10.43;10.13;;;19.30;99.90;;;;;;5018090;28;20224;-89
2022/08/18 04:22:38;;;;;;;10.48;10.18;;;19.20;99.90;;;;;;5017754;28;20232;-88
2022/08/18 04:25:08;;;;;;;10.60;10.30;;;19.20;99.90;;;;;;5016810;28;20291;-88
2022/08/18 04:27:38;;;;;;;10.60;10.30;;;19.20;99.90;;;;;;5017841;28;20252;-88
2022/08/18 04:30:07;;;;;;;10.68;10.38;;;19.20;99.90;;;;;;5018210;28;20265;-88
2022/08/18 04:32:38;;;;;;;10.50;10.20;;;19.20;99.90;;;;;;5017610;28;20225;-88
2022/08/18 04:35:07;;;;;;;10.63;10.32;;;19.20;99.90;;;;;;5016908;28;20238;-88
2022/08/18 04:37:37;;;;;;;10.68;10.38;;;19.10;99.90;;;;;;5016753;28;20220;-88
2022/08/18 04:40:06;;;;;;;10.30;10.00;;;19.10;99.90;;;;;;5017478;28;20232;-88
2022/08/18 04:42:34;;;;;;;10.40;10.10;;;19.10;99.90;;;;;;5017417;28;20251;-88
2022/08/18 04:45:02;;;;;;;10.30;10.00;;;19.00;99.90;;;;;;5016711;28;20251;-87
2022/08/18 04:47:33;;;;;;;10.25;9.95;;;19.00;99.90;;;;;;4959100;22;2604831;-84
2022/08/18 04:55:36;;;;;;;10.30;10.00;;;18.90;99.90;;;;;;5028101;28;20228;-84
2022/08/18 04:58:05;;;;;;;10.32;10.02;;;18.90;99.90;;;;;;5026969;28;20284;-84
2022/08/18 05:00:34;;;;;;;10.32;10.02;;;19.00;99.90;;;;;;5027109;28;20236;-84
2022/08/18 05:03:04;;;;;;;10.30;10.00;;;19.00;99.90;;;;;;5026186;28;20297;-84
2022/08/18 05:05:45;;;;;;;10.35;10.05;;;19.10;99.90;;;;;;5025302;28;20236;-84
2022/08/18 05:08:13;;;;;;;10.45;10.15;;;19.10;99.90;;;;;;5026135;28;20280;-84
2022/08/18 05:10:41;;;;;;;10.70;10.40;;;19.20;99.90;;;;;;5024862;28;20259;-84
2022/08/18 05:13:10;;;;;;;10.50;10.20;;;19.20;99.90;;;;;;5028496;28;20252;-84
2022/08/18 05:15:42;;;;;;;10.35;10.05;;;19.30;99.90;;;;;;5034428;28;20232;-84
2022/08/18 05:18:09;;;;;;;10.13;9.82;;;19.40;99.90;;;;;;5029998;28;20225;-84
2022/08/18 05:23:28;;;;;;;10.20;9.90;;;19.50;99.90;;;;;;5029044;28;20228;-84
2022/08/18 05:28:43;;;;;;;10.40;10.10;;;19.60;99.90;;;;;;5031524;28;20292;-84
2022/08/18 05:31:15;;;;;;;10.13;9.82;;;19.60;99.90;;;;;;5031557;28;20303;-84
2022/08/18 05:33:43;;;;;;;10.30;10.00;;;19.70;99.90;;;;;;5038719;28;20236;-84
2022/08/18 05:36:28;;;;;;;10.77;10.48;;;19.70;99.90;;;;;;5038644;28;20251;-83
2022/08/18 05:39:07;;;;;;;10.20;9.90;;;19.70;99.90;;;;;;5036673;28;20244;-84
2022/08/18 05:41:38;;;;;;;10.20;9.90;;;19.70;99.90;;;;;;5031657;28;20263;-84
2022/08/18 05:44:16;;;;;;;10.30;10.00;;;19.70;99.90;;;;;;5033367;28;20224;-84
2022/08/18 05:46:55;;;;;;;10.20;9.90;;;19.70;99.90;;;;;;5037334;28;20236;-83
2022/08/18 05:49:33;;;;;;;10.00;9.70;;;19.80;99.90;;;;;;5037703;28;20208;-84
2022/08/18 05:52:09;;;;;;;10.30;10.00;;;19.80;99.90;;;;;;5037077;28;20231;-84
2022/08/18 05:57:36;;;;;;;10.25;9.95;;;19.90;99.90;;;;;;5031229;28;20240;-84
2022/08/18 06:00:07;;;;;;;10.35;10.05;;;19.90;99.90;;;;;;5029883;28;20255;-84
2022/08/18 06:02:44;;;;;;;10.50;10.20;;;19.90;99.90;;;;;;5027762;28;20236;-84
2022/08/18 06:05:22;;;;;;;10.30;10.00;;;19.90;99.90;;;;;;5027443;28;20243;-84
2022/08/18 06:08:00;;;;;;;10.10;9.80;;;19.90;99.90;;;;;;5028212;28;20271;-84
2022/08/18 06:10:30;;;;;;;10.40;10.10;;;19.90;99.90;;;;;;5028078;28;20280;-84
2022/08/18 06:13:01;;;;;;;9.90;9.60;;;20.00;99.90;;;;;;5026909;28;20290;-84
2022/08/18 06:15:46;;;;;;;10.10;9.80;;;20.00;99.90;;;;;;5026891;28;20260;-84
2022/08/18 06:18:41;;;;;;;10.30;10.00;;;20.00;99.90;;;;;;5026667;28;20227;-84
2022/08/18 06:21:28;;;;;;;10.45;10.15;;;20.20;99.90;;;;;;5027010;28;20244;-84
2022/08/18 06:24:17;;;;;;;10.30;10.00;;;20.30;99.90;;;;;;5026877;28;20291;-84
2022/08/18 06:26:56;;;;;;;10.20;9.90;;;20.40;99.90;;;;;;5027120;28;20247;-84
2022/08/18 06:29:43;;;;;;;10.35;10.05;;;20.60;99.90;;;;;;5026065;28;20223;-84
2022/08/18 06:32:20;;;;;;;10.65;10.35;;;20.70;99.90;;;;;;5026785;28;20218;-84
2022/08/18 06:35:09;;;;;;;10.52;10.23;;;20.80;99.90;;;;;;5026192;28;20251;-84
2022/08/18 06:40:31;;;;;;;10.68;10.38;;;21.00;99.90;;;;;;5025431;28;20254;-84
2022/08/18 06:43:01;;;;;;;10.80;10.50;;;21.10;99.90;;;;;;5027155;28;20232;-84
2022/08/18 06:45:41;;;;;;;10.88;10.57;;;21.10;99.90;;;;;;5026953;28;20255;-84
2022/08/18 06:48:19;;;;;;;10.75;10.45;;;21.10;99.90;;;;;;5027123;28;20231;-84
2022/08/18 06:50:59;;;;;;;10.98;10.68;;;21.10;99.90;;;;;;5026136;28;20220;-84
2022/08/18 06:54:02;;;;;;;10.60;10.30;;;21.20;99.90;;;;;;5029300;28;20224;-84
2022/08/18 06:56:57;;;;;;;10.65;10.35;;;21.30;99.90;;;;;;5038552;28;20228;-84
2022/08/18 06:59:38;;;;;;;10.60;10.30;;;21.40;99.90;;;;;;5038449;28;20243;-84
2022/08/18 07:02:21;;;;;;;10.77;10.48;;;21.50;99.90;;;;;;5033023;28;20232;-84
2022/08/18 07:05:19;;;;;;;10.57;10.27;;;21.60;99.90;;;;;;5025334;28;20316;-84
2022/08/18 07:08:04;;;;;;;10.63;10.32;;;21.60;99.90;;;;;;5023870;28;20304;-84
2022/08/18 07:10:35;;;;;;;10.80;10.50;;;21.60;99.90;;;;;;5023839;28;20239;-84
2022/08/18 07:13:30;;;;;;;10.50;10.20;;;21.70;99.90;;;;;;5024181;28;20295;-84
2022/08/18 07:16:25;;;;;;;10.70;10.40;;;21.70;99.90;;;;;;5025510;28;20227;-84
2022/08/18 07:18:55;;;;;;;10.30;10.00;;;21.70;99.90;;;;;;5027688;28;20232;-84
2022/08/18 07:21:36;;;;;;;10.40;10.10;;;21.70;99.90;;;;;;5026400;28;20263;-85
2022/08/18 07:24:11;;;;;;;10.63;10.32;;;21.60;99.90;;;;;;5027148;28;20252;-84
2022/08/18 07:30:04;;;;;;;10.70;10.40;;;21.90;99.90;;;;;;5028343;28;20234;-84
2022/08/18 07:32:43;;;;;;;10.60;10.30;;;22.00;99.90;;;;;;5034771;28;20320;-84
2022/08/18 07:35:14;;;;;;;10.80;10.50;;;22.20;99.90;;;;;;5031483;28;20288;-84
2022/08/18 07:37:57;;;;;;;11.00;10.70;;;22.10;99.90;;;;;;5031640;28;20326;-84
2022/08/18 07:40:37;;;;;;;11.00;10.70;;;22.30;99.90;;;;;;5030522;28;20236;-84
2022/08/18 07:43:14;;;;;;;11.43;11.02;;;22.50;99.90;;;;;;5028954;28;20314;-84
2022/08/18 07:45:54;;;;;;;11.18;10.80;;;22.70;99.90;;;;;;5028221;28;20317;-84
2022/08/18 07:48:31;;;;;;;11.40;11.00;;;22.80;99.90;;;;;;5029280;28;20228;-84
2022/08/18 07:51:09;;;;;;;11.10;10.80;;;22.90;99.90;;;;;;5028433;28;20236;-84
2022/08/18 07:53:57;;;;;;;11.10;10.80;;;23.10;99.90;;;;;;5028161;28;20231;-84
2022/08/18 07:56:43;;;;;;;11.27;10.88;;;23.30;99.90;;;;;;5026720;28;20267;-82
2022/08/18 07:59:21;;;;;;;11.40;11.00;;;23.50;99.90;;;;;;5027898;28;20251;-84
2022/08/18 08:02:19;;;;;;;11.02;10.73;;;23.60;99.90;;;;;;5027742;28;20247;-84
2022/08/18 08:08:01;;;;;;;11.10;10.80;;;23.50;99.90;;;;;;5027809;28;20233;-83
2022/08/18 08:10:43;;;;;;;10.95;10.65;;;23.60;99.90;;;;;;5027314;28;20232;-83
2022/08/18 08:16:15;;;;;;;11.25;10.93;;;24.00;99.90;;;;;;5027682;28;20319;-83
2022/08/18 08:19:00;;;;;;;11.07;10.77;;;23.90;99.90;;;;;;5027481;28;20228;-84
2022/08/18 08:21:33;;;;;;;11.38;11.00;;;24.00;99.90;;;;;;5027293;28;20239;-85
2022/08/18 08:24:18;;;;;;;11.10;10.80;;;24.30;99.90;;;;;;5027430;28;20228;-85
2022/08/18 08:26:59;;;;;;;11.10;10.80;;;24.10;99.90;;;;;;5025973;28;20238;-85
2022/08/18 08:29:42;;;;;;;11.18;10.88;;;24.30;99.90;;;;;;5026977;28;20231;-84
2022/08/18 08:35:51;;;;;;;11.13;10.82;;;24.20;99.90;;;;;;5026610;28;20228;-82
2022/08/18 08:38:31;;;;;;;11.40;11.10;;;24.20;99.90;;;;;;5027583;28;20251;-82
2022/08/18 08:41:09;;;;;;;11.20;10.90;;;24.30;99.90;;;;;;5027041;28;20254;-82
2022/08/18 08:43:47;;;;;;;11.25;10.95;;;24.30;99.90;;;;;;5030064;28;20222;-82
2022/08/18 08:46:28;;;;;;;11.52;11.13;;;24.40;99.90;;;;;;5029240;28;20244;-83
2022/08/18 08:49:12;;;;;;;11.65;11.25;;;24.40;99.90;;;;;;5027955;28;20232;-83
2022/08/18 08:51:55;;;;;;;11.45;11.05;;;24.40;99.90;;;;;;5027937;28;20232;-83
2022/08/18 08:54:28;;;;;;;11.20;10.90;;;24.40;99.90;;;;;;5026934;28;20228;-83
2022/08/18 08:57:00;;;;;;;11.15;10.85;;;24.50;99.90;;;;;;5027025;28;20303;-83
2022/08/18 08:59:28;;;;;;;11.25;10.95;;;24.60;99.90;;;;;;5027307;28;20232;-82
2022/08/18 09:02:14;;;;;;;11.60;11.20;;;24.80;99.90;;;;;;5025740;28;20262;-83
2022/08/18 09:04:52;;;;;;;11.50;11.10;;;24.70;99.90;;;;;;5027630;28;20251;-83
2022/08/18 09:07:40;;;;;;;11.20;10.90;;;24.80;99.90;;;;;;5025525;28;20231;-83
2022/08/18 09:10:45;;;;;;;11.77;11.38;;;25.10;99.90;;;;;;5025297;28;20314;-83
2022/08/18 09:13:40;;;;;;;11.90;11.50;;;25.30;99.90;;;;;;5026208;28;20235;-84
2022/08/18 09:19:31;;;;;;;11.90;11.50;;;25.50;99.90;;;;;;5023851;28;20295;-83
2022/08/18 09:22:10;;;;;;;11.65;11.25;;;25.40;99.90;;;;;;5026577;28;20220;-83
2022/08/18 09:24:48;;;;;;;11.57;11.18;;;25.30;99.90;;;;;;5025206;28;20302;-83
2022/08/18 09:27:36;;;;;;;11.77;11.38;;;25.70;99.90;;;;;;5026672;28;20246;-83
2022/08/18 09:30:07;;;;;;;11.20;10.90;;;25.80;99.90;;;;;;5026345;28;20228;-84
2022/08/18 09:33:09;;;;;;;11.70;11.30;;;25.70;99.90;;;;;;5027806;28;20263;-83
2022/08/18 09:36:18;;;;;;;11.68;11.27;;;25.80;99.90;;;;;;5027044;28;20251;-83
2022/08/18 09:41:50;;;;;;;11.82;11.43;;;26.20;99.90;;;;;;5026085;28;20228;-84
2022/08/18 09:45:01;;;;;;;11.90;11.50;;;26.10;99.90;;;;;;5026026;28;20314;-83
2022/08/18 09:48:06;;;;;;;12.00;11.60;;;26.30;99.90;;;;;;5025139;28;20299;-83
2022/08/18 09:51:01;;;;;;;11.77;11.38;;;26.10;99.90;;;;;;5031103;28;20228;-83
2022/08/18 09:53:59;;;;;;;11.70;11.30;;;26.30;99.90;;;;;;5034943;28;20243;-83
2022/08/18 09:57:30;;;;;;;11.60;11.20;;;26.30;99.90;;;;;;5038895;28;20243;-82
2022/08/18 10:00:33;;;;;;;11.70;11.30;;;26.50;99.90;;;;;;5037635;28;20292;-83
2022/08/18 10:03:19;;;;;;;12.07;11.68;;;26.90;99.90;;;;;;5037857;28;20232;-83
2022/08/18 10:06:19;;;;;;;11.60;11.20;;;27.40;99.90;;;;;;5028159;28;20236;-84
2022/08/18 10:15:49;;;;;;;12.00;11.60;;;27.20;99.90;;;;;;5027298;28;20228;-84
2022/08/18 10:18:46;;;;;;;12.00;11.60;;;27.20;99.90;;;;;;5025806;28;20232;-84
2022/08/18 10:21:27;;;;;;;12.00;11.60;;;27.20;99.90;;;;;;5026080;28;20327;-84
2022/08/18 10:24:00;;;;;;;11.88;11.48;;;27.30;99.90;;;;;;5026340;28;20259;-84
2022/08/18 10:27:15;;;;;;;12.00;11.60;;;27.40;99.90;;;;;;5025497;28;20236;-84
2022/08/18 10:30:03;;;;;;;11.80;11.40;;;27.70;99.90;;;;;;5026218;28;20256;-84
2022/08/18 10:32:49;;;;;;;11.82;11.43;;;27.60;99.90;;;;;;5029048;28;20216;-83
2022/08/18 10:36:01;;;;;;;11.90;11.50;;;27.60;99.90;;;;;;5036684;28;20234;-81
2022/08/18 10:38:52;;;;;;;11.90;11.50;;;27.20;99.90;;;;;;5029170;28;20216;-84
2022/08/18 10:44:16;;;;;;;11.80;11.40;;;28.00;99.90;;;;;;5021148;28;20307;-84
2022/08/18 10:46:50;;;;;;;11.93;11.52;;;28.10;99.90;;;;;;5042082;22;20240;-78
2022/08/18 10:49:24;;;;;;;11.90;11.50;;;28.40;99.90;;;;;;5018972;28;20228;-77
2022/08/18 10:52:34;;;;;;;11.85;11.45;;;28.80;99.90;;;;;;5021257;28;20232;-78
2022/08/18 10:55:19;;;;;;;11.98;11.57;;;29.00;99.90;;;;;;5021113;28;20232;-78
2022/08/18 10:58:20;;;;;;;11.48;11.13;;;29.30;99.90;;;;;;5021779;28;20224;-79
2022/08/18 11:01:07;;;;;;;11.70;11.30;;;29.40;99.90;;;;;;5021504;28;20215;-78
2022/08/18 11:04:02;;;;;;;11.27;10.98;;;29.50;99.90;;;;;;5021008;28;20236;-79
2022/08/18 11:06:40;;;;;;;11.10;10.80;;;29.50;99.90;;;;;;5022025;28;20331;-79
2022/08/18 11:09:09;;;;;;;10.95;10.65;;;29.30;99.90;;;;;;5023218;28;20244;-79
2022/08/18 11:11:46;;;;;;;11.07;10.77;;;29.10;99.90;;;;;;5022877;28;20311;-79
2022/08/18 11:14:46;;;;;;;11.00;10.70;;;29.00;99.90;;;;;;5023638;28;20242;-79
2022/08/18 11:17:31;;;;;;;11.20;10.90;;;29.00;99.90;;;;;;5023390;28;20243;-81
2022/08/18 11:20:09;;;;;;;11.13;10.82;;;28.90;99.90;;;;;;5023705;28;20232;-80
2022/08/18 11:22:37;;;;;;;11.20;10.90;;;28.70;99.90;;;;;;5023670;28;20216;-79
2022/08/18 11:25:25;;;;;;;11.10;10.80;;;28.60;99.90;;;;;;5021292;28;20232;-78
2022/08/18 11:27:55;;;;;;;11.20;10.90;;;28.70;99.90;;;;;;5021595;28;20239;-79
2022/08/18 11:30:31;;;;;;;11.15;10.85;;;29.00;99.90;;;;;;5022664;28;20228;-78
2022/08/18 11:33:02;;;;;;;11.15;10.85;;;29.40;99.90;;;;;;5022749;28;20278;-79
2022/08/18 11:35:49;;;;;;;11.60;11.27;;;29.80;99.90;;;;;;5023478;28;20239;-78
2022/08/18 11:38:19;;;;;;;11.85;11.45;;;30.40;99.90;;;;;;5023482;28;20323;-80
2022/08/18 11:40:50;;;;;;;11.80;11.40;;;30.90;99.90;;;;;;5023149;28;20277;-79
2022/08/18 11:43:20;;;;;;;11.50;11.20;;;31.10;99.90;;;;;;5022265;28;20268;-79
2022/08/18 11:45:55;;;;;;;11.35;11.05;;;30.20;99.90;;;;;;5022404;28;20300;-79
2022/08/18 11:48:45;;;;;;;11.25;10.95;;;30.30;99.90;;;;;;5023085;28;20255;-79
2022/08/18 11:51:20;;;;;;;11.20;10.90;;;30.40;99.90;;;;;;5022968;28;20232;-78
2022/08/18 11:53:58;;;;;;;11.02;10.73;;;30.00;99.90;;;;;;5023456;28;20285;-78
2022/08/18 11:56:29;;;;;;;10.90;10.60;;;30.00;99.90;;;;;;5021738;28;20330;-79
2022/08/18 11:59:00;;;;;;;10.90;10.60;;;29.80;99.90;;;;;;5022780;28;20263;-79
2022/08/18 12:01:39;;;;;;;10.90;10.60;;;29.70;99.90;;;;;;5021598;28;20319;-79
2022/08/18 12:04:22;;;;;;;10.90;10.60;;;29.40;99.90;;;;;;5022259;28;20315;-79
2022/08/18 12:07:03;;;;;;;10.70;10.40;;;29.30;99.90;;;;;;5022355;28;20240;-79
2022/08/18 12:09:38;;;;;;;11.00;10.70;;;29.40;99.90;;;;;;5022200;28;20295;-79
2022/08/18 12:12:15;;;;;;;10.82;10.52;;;29.40;99.90;;;;;;5023173;28;20236;-78
2022/08/18 12:14:58;;;;;;;11.00;10.70;;;29.40;99.90;;;;;;5035160;28;20223;-79
2022/08/18 12:17:27;;;;;;;10.93;10.63;;;29.50;99.90;;;;;;5030555;28;20247;-79
2022/08/18 12:19:56;;;;;;;11.00;10.70;;;29.60;99.90;;;;;;5023130;28;20242;-78
2022/08/18 12:22:30;;;;;;;10.95;10.65;;;29.40;99.90;;;;;;5023160;28;20232;-78
2022/08/18 12:24:58;;;;;;;11.23;10.93;;;29.50;99.90;;;;;;5022527;28;20229;-78
2022/08/18 12:27:32;;;;;;;11.20;10.90;;;29.60;99.90;;;;;;5023043;28;20323;-78
2022/08/18 12:30:02;;;;;;;11.20;10.90;;;29.40;99.90;;;;;;5022656;28;20232;-78
2022/08/18 12:32:34;;;;;;;10.90;10.60;;;29.20;99.90;;;;;;5021371;28;20236;-78
2022/08/18 12:35:02;;;;;;;11.05;10.75;;;29.00;99.90;;;;;;5021005;28;20308;-79
2022/08/18 12:37:34;;;;;;;11.27;10.98;;;28.90;99.90;;;;;;5023102;28;20232;-78
2022/08/18 12:40:01;;;;;;;11.65;11.25;;;29.00;99.90;;;;;;5022513;28;20292;-79
2022/08/18 12:42:30;;;;;;;11.20;10.90;;;29.20;99.90;;;;;;5021672;28;20315;-79
2022/08/18 12:44:59;;;;;;;11.40;11.10;;;29.40;99.90;;;;;;5021212;28;20248;-79
2022/08/18 12:47:29;;;;;;;11.43;11.13;;;29.70;99.90;;;;;;5021786;28;20282;-79
2022/08/18 12:49:58;;;;;;;11.73;11.32;;;29.90;99.90;;;;;;5021144;28;20236;-79
2022/08/18 12:52:28;;;;;;;11.90;11.50;;;30.10;99.90;;;;;;5021426;28;20331;-79
2022/08/18 12:55:07;;;;;;;11.73;11.32;;;30.30;99.90;;;;;;5021747;28;20220;-80
2022/08/18 12:57:36;;;;;;;11.80;11.40;;;30.50;99.90;;;;;;5022389;28;20235;-79
2022/08/18 13:00:06;;;;;;;12.15;11.75;;;30.70;99.90;;;;;;5023368;28;20300;-79
2022/08/18 13:02:34;;;;;;;11.80;11.40;;;30.70;99.90;;;;;;5022986;28;20248;-81
2022/08/18 13:05:04;;;;;;;11.82;11.43;;;31.00;99.90;;;;;;5023203;28;20272;-80
2022/08/18 13:07:33;;;;;;;12.20;11.80;;;31.40;99.90;;;;;;5021376;28;20240;-79
2022/08/18 13:10:08;;;;;;;12.05;11.65;;;31.60;99.90;;;;;;5022216;28;20224;-79
2022/08/18 13:12:43;;;;;;;12.07;11.68;;;32.20;99.90;;;;;;5021032;28;20228;-79
2022/08/18 13:15:12;;;;;;;12.07;11.68;;;32.60;99.90;;;;;;5018880;28;20227;-79
2022/08/18 13:17:39;;;;;;;12.13;11.73;;;32.40;99.90;;;;;;5021098;28;20242;-79
2022/08/18 13:20:10;;;;;;;12.10;11.70;;;32.80;99.90;;;;;;5021827;28;20346;-79
2022/08/18 13:22:39;;;;;;;11.90;11.50;;;32.70;99.90;;;;;;5022068;28;20260;-78
2022/08/18 13:25:11;;;;;;;11.48;11.18;;;32.90;99.90;;;;;;5020345;28;20224;-78
2022/08/18 13:27:39;;;;;;;11.20;10.90;;;33.20;99.90;;;;;;5022046;28;20340;-79
2022/08/18 13:30:15;;;;;;;11.30;11.00;;;33.40;99.90;;;;;;5022732;28;20236;-79
2022/08/18 13:32:45;;;;;;;11.15;10.85;;;33.40;99.90;;;;;;5020916;28;20255;-80
2022/08/18 13:35:14;;;;;;;11.40;11.10;;;33.60;99.90;;;;;;5020489;28;20307;-79
2022/08/18 13:37:44;;;;;;;11.20;10.90;;;33.90;99.90;;;;;;5021571;28;20236;-78
2022/08/18 13:40:17;;;;;;;11.15;10.85;;;33.90;99.90;;;;;;5019637;28;20259;-78
2022/08/18 13:42:48;;;;;;;11.32;11.02;;;34.10;99.90;;;;;;5019600;28;20280;-79
2022/08/18 13:45:18;;;;;;;11.75;11.35;;;34.50;99.90;;;;;;5019898;28;20315;-79
2022/08/18 13:47:48;;;;;;;11.80;11.40;;;34.40;99.90;;;;;;5019991;28;20239;-79
2022/08/18 13:50:19;;;;;;;11.10;10.80;;;34.10;99.90;;;;;;5019575;28;20247;-79
2022/08/18 13:52:48;;;;;;;11.30;11.00;;;34.00;99.90;;;;;;5020540;28;20724;-79
2022/08/18 13:55:20;;;;;;;11.23;10.93;;;34.20;99.90;;;;;;5019375;28;20287;-79
2022/08/18 13:57:48;;;;;;;11.38;11.07;;;34.40;99.90;;;;;;5018985;28;20238;-78
2022/08/18 14:00:19;;;;;;;11.43;11.13;;;34.40;99.90;;;;;;5019301;28;20232;-79
2022/08/18 14:02:49;;;;;;;11.40;11.10;;;34.80;99.90;;;;;;5019683;28;20239;-80
2022/08/18 14:05:17;;;;;;;12.07;11.68;;;34.80;99.90;;;;;;5019097;28;20231;-78
2022/08/18 14:07:46;;;;;;;12.00;11.60;;;34.90;99.90;;;;;;5019168;28;20335;-78
2022/08/18 14:10:17;;;;;;;11.70;11.30;;;35.00;99.90;;;;;;5019666;28;20327;-79
2022/08/18 14:12:47;;;;;;;10.95;10.65;;;35.00;99.90;;;;;;5020163;28;20233;-78
2022/08/18 14:15:16;;;;;;;11.20;10.90;;;35.20;99.90;;;;;;5018808;28;20222;-79
2022/08/18 14:17:44;;;;;;;11.00;10.70;;;35.20;99.90;;;;;;5019388;28;20247;-78
2022/08/18 14:28:36;;;;;;;11.43;11.13;;;35.00;99.90;;;;;;5021391;28;20228;-78